createdAt,value
2019-03-21T00:02:53.367Z,20.47
2019-03-21T00:07:56.920Z,19.94
2019-03-21T00:13:00.530Z,19.72
2019-03-21T00:18:08.225Z,19.59
2019-03-21T00:23:11.754Z,19.32
2019-03-21T00:28:15.360Z,19.16
2019-03-21T00:33:18.895Z,19.12
2019-03-21T00:38:22.466Z,18.95
2019-03-21T00:43:26.002Z,18.82
2019-03-21T00:48:29.604Z,18.80
2019-03-21T00:53:33.182Z,19.36
2019-03-21T00:58:37.273Z,20.63
2019-03-21T01:03:40.811Z,21.52
2019-03-21T01:08:44.415Z,22.82
2019-03-21T01:13:48.267Z,22.82
2019-03-21T01:18:51.871Z,23.10
2019-03-21T01:23:55.436Z,22.77
2019-03-21T01:28:59.041Z,22.38
2019-03-21T01:34:02.602Z,22.15
2019-03-21T01:39:07.087Z,21.95
2019-03-21T01:44:10.615Z,21.89
2019-03-21T01:49:14.201Z,21.58
2019-03-21T01:54:17.766Z,21.43
2019-03-21T01:59:21.378Z,21.10
2019-03-21T02:04:24.934Z,20.64
2019-03-21T02:09:28.508Z,20.13
2019-03-21T02:14:32.070Z,19.74
2019-03-21T02:19:35.668Z,19.51
2019-03-21T02:24:39.207Z,19.35
2019-03-21T02:29:42.827Z,19.16
2019-03-21T02:34:46.365Z,19.01
2019-03-21T02:39:59.516Z,18.99
2019-03-21T02:45:07.566Z,18.81
2019-03-21T02:50:00.542Z,18.66
2019-03-21T02:55:05.075Z,18.71
2019-03-21T03:00:17.778Z,19.57
2019-03-21T03:05:24.114Z,20.60
2019-03-21T03:10:36.734Z,20.99
2019-03-21T03:15:41.092Z,21.13
2019-03-21T03:20:44.938Z,21.51
2019-03-21T03:25:50.963Z,22.04
2019-03-21T03:30:56.011Z,22.29
2019-03-21T03:35:59.567Z,22.36
2019-03-21T03:41:14.399Z,22.23
2019-03-21T03:46:17.956Z,21.97
2019-03-21T03:51:21.559Z,22.07
2019-03-21T03:56:25.098Z,22.11
2019-03-21T04:01:28.683Z,22.44
2019-03-21T04:06:32.210Z,22.75
2019-03-21T04:11:36.184Z,23.02
2019-03-21T04:16:39.721Z,23.89
2019-03-21T04:21:43.320Z,24.09
2019-03-21T04:26:46.949Z,24.26
2019-03-21T04:31:50.523Z,24.61
2019-03-21T04:36:54.092Z,25.04
2019-03-21T04:41:57.681Z,25.15
2019-03-21T04:47:01.233Z,24.79
2019-03-21T04:52:04.800Z,24.90
2019-03-21T04:57:08.334Z,25.18
2019-03-21T05:02:12.006Z,25.22
2019-03-21T05:07:15.571Z,25.77
2019-03-21T05:12:19.149Z,25.72
2019-03-21T05:17:22.713Z,25.88
2019-03-21T05:22:26.279Z,25.73
2019-03-21T05:27:29.827Z,25.95
2019-03-21T05:32:33.439Z,26.18
2019-03-21T05:37:36.998Z,26.31
2019-03-21T05:42:40.985Z,24.95
2019-03-21T05:47:44.531Z,25.51
2019-03-21T05:52:48.174Z,25.48
2019-03-21T05:57:51.725Z,26.26
2019-03-21T06:02:55.321Z,25.30
2019-03-21T06:08:11.257Z,25.48
2019-03-21T06:13:14.821Z,25.32
2019-03-21T06:18:40.991Z,25.23
2019-03-21T06:24:04.620Z,25.32
2019-03-21T06:29:08.174Z,25.39
2019-03-21T06:34:12.072Z,25.40
2019-03-21T06:39:15.629Z,25.65
2019-03-21T06:44:19.209Z,25.34
2019-03-21T06:49:22.761Z,25.61
2019-03-21T06:54:26.336Z,25.65
2019-03-21T06:59:29.948Z,24.28
2019-03-21T07:04:33.520Z,24.28
2019-03-21T07:09:37.044Z,24.27
2019-03-21T07:14:40.632Z,24.00
2019-03-21T07:19:44.169Z,23.65
2019-03-21T07:24:48.193Z,23.28
2019-03-21T07:29:51.729Z,22.99
2019-03-21T07:34:55.337Z,22.55
2019-03-21T07:39:58.870Z,22.20
2019-03-21T07:45:02.444Z,22.10
2019-03-21T07:50:08.989Z,21.98
2019-03-21T07:55:13.535Z,21.88
2019-03-21T08:00:18.195Z,21.98
2019-03-21T08:05:21.843Z,21.99
2019-03-21T08:10:25.402Z,22.04
2019-03-21T08:15:28.973Z,22.32
2019-03-21T08:20:32.511Z,22.61
2019-03-21T08:25:36.088Z,22.89
2019-03-21T08:30:42.766Z,22.87
2019-03-21T08:35:46.663Z,23.00
2019-03-21T08:40:50.220Z,23.48
2019-03-21T08:45:53.784Z,24.21
2019-03-21T08:51:07.640Z,24.09
2019-03-21T08:56:02.617Z,23.63
2019-03-21T09:01:06.171Z,23.42
2019-03-21T09:06:09.757Z,23.26
2019-03-21T09:11:13.284Z,23.17
2019-03-21T09:16:16.994Z,22.98
2019-03-21T09:21:20.617Z,22.86
2019-03-21T09:26:24.188Z,22.80
2019-03-21T09:31:27.750Z,23.38
2019-03-21T09:36:31.360Z,22.99
2019-03-21T09:41:35.129Z,23.17
2019-03-21T09:46:50.171Z,23.53
2019-03-21T09:51:45.170Z,23.68
2019-03-21T09:56:48.779Z,24.04
2019-03-21T10:01:54.389Z,23.88
2019-03-21T10:06:57.636Z,23.70
2019-03-21T10:12:01.166Z,23.59
2019-03-21T10:17:04.928Z,23.42
2019-03-21T10:22:08.485Z,23.26
2019-03-21T10:27:12.085Z,23.15
2019-03-21T10:32:15.620Z,23.07
2019-03-21T10:37:19.265Z,22.95
2019-03-21T10:42:22.825Z,22.87
2019-03-21T10:47:26.437Z,22.80
2019-03-21T10:52:29.956Z,22.69
2019-03-21T10:57:33.550Z,22.71
2019-03-21T11:02:37.085Z,22.76
2019-03-21T11:07:40.680Z,22.77
2019-03-21T11:12:44.204Z,22.78
2019-03-21T11:17:47.797Z,22.77
2019-03-21T11:22:51.364Z,22.73
2019-03-21T11:27:54.967Z,23.01
2019-03-21T11:32:58.517Z,22.79
2019-03-21T11:38:02.128Z,22.85
2019-03-21T11:43:07.459Z,22.91
2019-03-21T11:48:11.079Z,22.80
2019-03-21T11:53:14.625Z,22.78
2019-03-21T11:58:18.229Z,22.75
2019-03-21T12:03:24.228Z,22.70
2019-03-21T12:08:27.096Z,22.94
2019-03-21T12:13:30.631Z,22.82
2019-03-21T12:18:34.250Z,22.87
2019-03-21T12:23:37.833Z,22.99
2019-03-21T12:28:41.384Z,23.53
2019-03-21T12:33:44.983Z,23.92
2019-03-21T12:38:48.540Z,24.13
2019-03-21T12:43:52.083Z,24.51
2019-03-21T12:48:55.884Z,24.33
2019-03-21T12:53:59.446Z,24.48
2019-03-21T12:59:03.064Z,24.54
2019-03-21T13:04:06.626Z,24.22
2019-03-21T13:09:10.222Z,23.95
2019-03-21T13:14:13.768Z,23.43
2019-03-21T13:19:17.348Z,23.11
2019-03-21T13:24:20.916Z,23.02
2019-03-21T13:29:25.222Z,23.82
2019-03-21T13:34:28.960Z,23.26
2019-03-21T13:39:32.619Z,23.09
2019-03-21T13:44:36.217Z,23.18
2019-03-21T13:49:39.813Z,22.90
2019-03-21T13:54:43.658Z,22.74
2019-03-21T13:59:47.496Z,22.70
2019-03-21T14:04:51.020Z,22.60
2019-03-21T14:09:54.656Z,22.61
2019-03-21T14:14:58.216Z,22.56
2019-03-21T14:20:01.827Z,22.54
2019-03-21T14:25:06.903Z,22.59
2019-03-21T14:30:12.883Z,22.70
2019-03-21T14:35:16.434Z,22.91
2019-03-21T14:40:20.011Z,23.02
2019-03-21T14:45:23.571Z,23.30
2019-03-21T14:50:27.143Z,23.34
2019-03-21T14:55:30.725Z,23.31
2019-03-21T15:00:34.489Z,23.35
2019-03-21T15:05:40.422Z,23.34
2019-03-21T15:10:44.020Z,24.00
2019-03-21T15:15:47.563Z,24.08
2019-03-21T15:20:51.244Z,24.13
2019-03-21T15:25:57.296Z,24.11
2019-03-21T15:31:01.903Z,23.75
2019-03-21T15:36:05.665Z,23.56
2019-03-21T15:41:09.184Z,23.45
2019-03-21T15:46:12.781Z,23.23
2019-03-21T15:51:16.331Z,23.10
2019-03-21T15:56:19.852Z,22.94
2019-03-21T16:01:23.444Z,22.73
2019-03-21T16:06:26.975Z,22.64
2019-03-21T16:11:30.560Z,22.50
2019-03-21T16:16:34.092Z,22.39
2019-03-21T16:21:37.645Z,22.33
2019-03-21T16:26:41.191Z,22.42
2019-03-21T16:31:44.782Z,22.81
2019-03-21T16:36:48.367Z,23.64
2019-03-21T16:41:51.953Z,24.24
2019-03-21T16:46:55.545Z,24.63
2019-03-21T16:51:59.101Z,24.86
2019-03-21T16:57:02.727Z,24.80
2019-03-21T17:02:06.294Z,25.13
2019-03-21T17:07:09.874Z,25.13
2019-03-21T17:12:13.492Z,25.10
2019-03-21T17:17:17.018Z,24.75
2019-03-21T17:22:20.602Z,24.68
2019-03-21T17:27:24.246Z,24.30
2019-03-21T17:32:27.822Z,23.86
2019-03-21T17:37:39.850Z,23.52
2019-03-21T17:42:44.822Z,23.21
2019-03-21T17:47:49.485Z,22.98
2019-03-21T17:53:00.872Z,22.72
2019-03-21T17:58:08.768Z,22.48
2019-03-21T18:03:12.498Z,22.31
2019-03-21T18:08:16.050Z,22.15
2019-03-21T18:13:19.597Z,22.02
2019-03-21T18:18:24.185Z,21.85
2019-03-21T18:23:28.971Z,21.90
2019-03-21T18:28:34.303Z,22.25
2019-03-21T18:33:42.750Z,22.72
2019-03-21T18:38:57.451Z,23.64
2019-03-21T18:43:51.604Z,24.83
2019-03-21T18:48:55.203Z,24.83
2019-03-21T18:53:58.834Z,25.55
2019-03-21T18:59:02.438Z,25.43
2019-03-21T19:04:06.031Z,25.19
2019-03-21T19:09:09.586Z,25.35
2019-03-21T19:14:13.184Z,24.94
2019-03-21T19:19:16.751Z,24.64
2019-03-21T19:24:20.422Z,24.61
2019-03-21T19:29:23.954Z,24.11
2019-03-21T19:34:27.597Z,23.60
2019-03-21T19:39:31.156Z,23.23
2019-03-21T19:44:36.275Z,22.85
2019-03-21T19:49:45.084Z,22.29
2019-03-21T19:54:49.444Z,22.29
2019-03-21T19:59:54.107Z,22.20
2019-03-21T20:04:59.236Z,22.20
2019-03-21T20:10:03.470Z,22.32
2019-03-21T20:15:10.190Z,22.47
2019-03-21T20:20:16.817Z,22.47
2019-03-21T20:25:20.443Z,22.46
2019-03-21T20:30:23.975Z,22.35
2019-03-21T20:35:27.547Z,22.27
2019-03-21T20:40:31.148Z,22.12
2019-03-21T20:45:34.726Z,22.10
2019-03-21T20:50:38.274Z,21.93
2019-03-21T20:55:53.203Z,21.73
2019-03-21T21:00:47.204Z,21.61
2019-03-21T21:05:50.781Z,21.24
2019-03-21T21:10:54.313Z,20.82
2019-03-21T21:15:58.248Z,20.67
2019-03-21T21:21:01.851Z,20.48
2019-03-21T21:26:06.059Z,20.40
2019-03-21T21:31:09.723Z,20.27
2019-03-21T21:36:21.551Z,20.32
2019-03-21T21:41:18.526Z,20.60
2019-03-21T21:46:22.484Z,21.25
2019-03-21T21:51:26.167Z,22.34
2019-03-21T21:56:29.853Z,23.05
2019-03-21T22:01:33.439Z,23.42
2019-03-21T22:06:36.996Z,23.52
2019-03-21T22:11:40.580Z,23.72
2019-03-21T22:16:44.131Z,24.03
2019-03-21T22:21:47.760Z,23.88
2019-03-21T22:26:51.336Z,24.82
2019-03-21T22:31:54.939Z,24.19
2019-03-21T22:36:58.500Z,23.99
2019-03-21T22:42:02.087Z,23.76
2019-03-21T22:47:05.672Z,23.47
2019-03-21T22:52:09.199Z,23.12
2019-03-21T22:57:12.780Z,22.81
2019-03-21T23:02:16.716Z,22.75
2019-03-21T23:07:20.269Z,22.77
2019-03-21T23:12:23.906Z,23.00
2019-03-21T23:17:27.464Z,23.52
2019-03-21T23:22:31.012Z,24.19
2019-03-21T23:27:34.621Z,24.44
2019-03-21T23:32:38.145Z,24.49
2019-03-21T23:37:41.699Z,24.24
2019-03-21T23:42:45.306Z,24.07
2019-03-21T23:47:48.865Z,24.11
2019-03-21T23:52:52.454Z,23.90
2019-03-21T23:57:56.013Z,23.71
